Terminal Aerodrome Forecast
Issued by NWS

Home | Current Version | Previous Version | Text Only | Print | Product List | Glossary On
Versions: 1 2 3 4 5 6 7 8 9 10 11 12 13 14 15 16 17
000
FTUS42 KTAE 301211 AAA
TAFVLD
TAF AMD
KVLD 301211Z 3012/0112 13008KT P6SM BKN015
      TEMPO 3012/3015 BKN007
     FM301500 15012KT P6SM BKN025
     FM301800 16013KT P6SM BKN050=

USA.gov is the U.S. government's official web portal to all federal, state and local government web resources and services.